Latest Coastal Weather Observations for Ceduna

IDS60701

Issued at 5:41 pm CDT Wednesday 29 March 2017 (issued every 10 minutes, with the page automatically refreshed every 10 minutes)

About coastal observations | Map of coastal stations | Coastal observations for SA | Marine services | Other Formats
Station Details ID: 018012 Name: CEDUNA AMO Lat: -32.13 Lon: 133.70 Height: 15.3 m
Data from the previous 72 hours. | See also: Recent months at Ceduna
Date/Time
CDT
Temp
°C
Wind Pressure Rain since
9am
mm
Weather Cloud Vis
km
Sea
Height
m
Swell
Dir  Spd
kts
Gust
kts
hPa Trend Height
m
Period
s
Dir
29/05:30pm - SW 21 28 1018.5 - 0.0 - Partly cloudy 10 - - - -
29/05:00pm - SW 21 27 1018.3 - 0.0 - Partly cloudy 10 - - - -
29/04:46pm 20.2 SW 20 30 1017.8 - 0.0 - Partly cloudy 10 - - - -
29/04:30pm 21.5 SW 20 26 1017.3 - 0.0 - Partly cloudy 10 - - - -
29/04:00pm 20.6 SW 20 27 1017.3 - 0.0 - Partly cloudy 10 - - - -
29/03:30pm 20.5 SW 21 28 1017.1 - 0.0 - Partly cloudy 10 - - - -
29/03:00pm 19.8 SW 21 29 1016.9 R 0.0 - Cloudy 10 - - - -
29/02:30pm 18.8 SW 20 25 1016.9 - 0.0 - Partly cloudy 10 - - - -
29/02:11pm 18.5 SW 21 31 1016.8 - 0.0 - Partly cloudy 9 - - - -
29/02:00pm 20.0 SW 21 27 1016.7 - 0.0 - Partly cloudy 10 - - - -
29/01:30pm 20.8 SW 21 29 1016.5 - 0.0 - Partly cloudy 10 - - - -
29/01:18pm 21.9 SW 21 29 1016.3 - 0.0 - Partly cloudy 10 - - - -
29/01:00pm 22.4 WSW 17 23 1016.3 - 0.0 - Partly cloudy 10 - - - -
29/12:30pm 22.4 WSW 18 24 1016.2 - 0.0 - Partly cloudy 10 - - - -
29/12:00pm 22.4 W 17 24 1016.3 R 0.0 - - 10 - - - -
29/11:30am 21.7 WSW 15 22 1016.3 - 0.0 - Partly cloudy 10 - - - -
29/11:00am 21.2 W 11 14 1016.3 - 0.0 - - 10 - - - -
29/10:30am 20.2 WNW 9 12 1016.1 - 0.0 - - 10 - - - -
29/10:00am 17.9 WNW 7 10 1015.9 - 0.0 - - 10 - - - -
29/09:30am 16.6 NW 7 10 1015.6 - 0.0 - - 10 - - - -
29/09:00am 13.7 NW 4 6 1015.2 R 0.0 - - 10 - - - -
29/08:30am 11.5 NNW 6 6 1014.7 - 0.0 - - 10 - - - -
29/08:00am 9.8 N 4 5 1014.3 - 0.0 - - 10 - - - -
29/07:30am 9.6 N 5 6 1013.9 - 0.0 - - 10 - - - -
29/07:00am 9.7 N 7 8 1013.8 - 0.0 - - 10 - - - -
29/06:30am 9.7 N 4 4 1013.5 - 0.0 - - 10 - - - -
29/06:00am 9.5 N 4 5 1013.3 F 0.0 - - 10 - - - -
29/05:30am 9.3 N 4 5 1013.2 - 0.0 - - 10 - - - -
29/05:00am 10.4 N 5 5 1013.2 - 0.0 - - 10 - - - -
29/04:30am 9.9 N 1 3 1013.3 - 0.0 - - 10 - - - -
29/04:00am 10.0 N 3 4 1013.5 - 0.0 - - 10 - - - -
29/03:30am 10.2 N 3 4 1013.7 - 0.0 - - 10 - - - -
29/03:00am 10.7 NNE 3 4 1013.8 R 0.0 - - 10 - - - -
29/02:30am 11.2 NE 3 5 1013.8 - 0.0 - - 10 - - - -
29/02:00am 11.2 NE 3 4 1013.6 - 0.0 - - 10 - - - -
29/01:30am 10.7 ENE 5 6 1013.4 - 0.0 - - 10 - - - -
29/01:00am 11.9 ENE 5 7 1013.6 - 0.0 - - 10 - - - -
29/12:30am 11.4 ESE 5 6 1014.0 - 0.0 - - 10 - - - -
29/12:00am 13.0 SE 6 6 1014.4 F 0.0 - - 10 - - - -
 
Date/Time
CDT
Temp
°C
Wind Pressure Rain since
9am
mm
Weather Cloud Vis
km
Sea
Height
m
Swell
Dir  Spd
kts
Gust
kts
hPa Trend Height
m
Period
s
Dir
28/11:30pm 14.2 S 4 6 1014.7 - 0.0 - - 10 - - - -
28/11:00pm 16.2 SSW 5 6 1015.0 - 0.0 - - 10 - - - -
28/10:30pm 16.8 SSW 6 8 1015.1 - 0.0 - - 10 - - - -
28/10:00pm 17.8 SW 8 10 1015.0 - 0.0 - - 10 - - - -
28/09:30pm 17.6 SSW 7 10 1015.0 - 0.0 - - 10 - - - -
28/09:00pm 17.9 SW 7 10 1014.7 F 0.0 - - 10 - - - -
28/08:30pm 17.9 SSW 6 8 1014.6 - 0.0 - - 10 - - - -
28/08:00pm 18.6 SW 9 10 1014.4 - 0.0 - - 10 - - - -
28/07:30pm 19.2 SW 9 11 1014.2 - 0.0 - - 10 - - - -
28/07:00pm 20.2 SW 10 13 1014.1 - 0.0 - - 10 - - - -
28/06:30pm 21.0 SW 12 14 1013.9 - 0.0 - - 10 - - - -
28/06:00pm 21.4 SW 11 15 1013.9 F 0.0 - - 10 - - - -
28/05:30pm 22.1 SW 13 15 1014.0 - 0.0 - - 10 - - - -
28/05:00pm 22.5 SW 13 17 1014.1 - 0.0 - - 10 - - - -
28/04:30pm 22.0 SW 12 15 1014.3 - 0.0 - - 10 - - - -
28/04:00pm 22.2 SW 13 16 1014.5 - 0.0 - - 10 - - - -
28/03:30pm 21.6 SW 12 17 1015.0 - 0.0 - - 10 - - - -
28/03:00pm 22.4 SW 13 16 1015.3 F 0.0 - - 10 - - - -
28/02:30pm 22.5 SW 13 17 1015.7 - 0.0 - - 10 - - - -
28/02:00pm 22.5 SW 12 15 1016.0 - 0.0 - - 10 - - - -
28/01:30pm 21.8 SW 11 15 1016.4 - 0.0 - - 10 - - - -
28/01:00pm 22.3 SW 8 12 1016.7 - 0.0 - - 10 - - - -
28/12:30pm 22.3 WSW 8 12 1017.2 - 0.0 - - 10 - - - -
28/12:00pm 21.5 WSW 8 11 1017.7 F 0.0 - - 10 - - - -
28/11:30am 21.5 WNW 6 10 1018.1 - 0.0 - Partly cloudy 10 - - - -
28/11:00am 20.8 WNW 6 10 1018.4 - 0.0 - Partly cloudy 10 - - - -
28/10:30am 20.3 W 5 8 1018.4 - 0.0 - Partly cloudy 10 - - - -
28/10:00am 20.1 N 4 5 1018.1 - 0.0 - Partly cloudy 10 - - - -
28/09:30am 18.8 NNW 4 5 1018.0 - 0.0 - Cloudy 10 - - - -
28/09:00am 16.8 NNW 3 5 1017.7 F 0.0 - Mostly cloudy 10 - - - -
28/08:30am 14.5 N 3 5 1017.5 - 0.0 - Partly cloudy 10 - - - -
28/08:00am 12.0 N 3 4 1017.3 - 0.0 - Partly cloudy 10 - - - -
28/07:30am 12.8 N 4 6 1017.0 - 0.0 - Partly cloudy 10 - - - -
28/07:00am 12.3 N 4 5 1016.7 - 0.0 - Partly cloudy 10 - - - -
28/06:30am 12.4 N 5 5 1016.7 - 0.0 - Partly cloudy 10 - - - -
28/06:00am 12.6 N 5 5 1016.6 F 0.0 - - 10 - - - -
28/05:30am 13.1 NNE 3 4 1016.5 - 0.0 - Partly cloudy 10 - - - -
28/05:00am 13.1 NNE 4 6 1016.6 - 0.0 - Partly cloudy 10 - - - -
28/04:30am 13.8 SSW 2 4 1016.6 - 0.0 - Partly cloudy 10 - - - -
28/04:00am 16.3 SSW 6 8 1016.9 - 0.0 - - 10 - - - -
28/03:30am 16.3 SSW 6 8 1017.2 - 0.0 - - 10 - - - -
28/03:00am 16.2 SSW 3 4 1017.4 F 0.0 - Partly cloudy 10 - - - -
28/02:30am 16.6 WNW 3 6 1017.4 - 0.0 - Partly cloudy 10 - - - -
28/02:00am 16.4 SSW 3 4 1017.6 - 0.0 - Cloudy 10 - - - -
28/01:30am 16.6 SSW 4 7 1018.1 - 0.0 - Partly cloudy 10 - - - -
28/01:00am 17.4 SSW 7 9 1018.1 - 0.0 - - 10 - - - -
28/12:30am 18.0 SSW 7 9 1018.3 - 0.0 - Partly cloudy 10 - - - -
28/12:00am 19.0 SSW 7 11 1018.5 R 0.0 - Partly cloudy 10 - - - -
 
Date/Time
CDT
Temp
°C
Wind Pressure Rain since
9am
mm
Weather Cloud Vis
km
Sea
Height
m
Swell
Dir  Spd
kts
Gust
kts
hPa Trend Height
m
Period
s
Dir
27/11:30pm 18.1 SSW 7 11 1018.5 - 0.0 - Partly cloudy 10 - - - -
27/11:00pm 16.0 SSW 3 4 1018.7 - 0.0 - Partly cloudy 10 - - - -
27/10:30pm 15.4 S 4 6 1018.7 - 0.0 - Partly cloudy 10 - - - -
27/10:00pm 15.3 SSW 4 5 1018.4 - 0.0 - - 10 - - - -
27/09:30pm 16.1 SSW 3 4 1018.2 - 0.0 - - 10 - - - -
27/09:00pm 16.7 SSW 5 6 1018.0 F 0.0 - - 10 - - - -
27/08:30pm 17.6 S 5 6 1017.6 - 0.0 - - 10 - - - -
27/08:00pm 18.5 S 5 6 1017.4 - 0.0 - - 10 - - - -
27/07:30pm 19.6 SSW 9 11 1017.4 - 0.0 - - 10 - - - -
27/07:00pm 20.4 S 9 12 1017.3 - 0.0 - - 10 - - - -
27/06:30pm 21.0 SSW 10 13 1017.4 - 0.0 - - 10 - - - -
27/06:00pm 21.3 SSW 12 15 1017.3 R 0.0 - - 10 - - - -
27/05:30pm 21.8 SSW 12 15 1017.2 - 0.0 - - 10 - - - -
27/05:00pm 21.9 SSW 12 16 1017.3 - 0.0 - - 10 - - - -
27/04:30pm 21.6 SSW 13 17 1017.5 - 0.0 - Partly cloudy 10 - - - -
27/04:00pm 21.3 SSW 14 18 1017.4 - 0.0 - Partly cloudy 10 - - - -
27/03:30pm 22.6 SSW 14 19 1017.3 - 0.0 - Partly cloudy 10 - - - -
27/03:00pm 22.8 SSW 14 19 1017.5 R 0.0 - Partly cloudy 10 - - - -
27/02:30pm 23.1 SSW 14 19 1018.0 - 0.0 - Partly cloudy 10 - - - -
27/02:00pm 22.3 SSW 13 17 1018.1 - 0.0 - Partly cloudy 10 - - - -
27/01:30pm 23.1 SSW 13 17 1018.0 - 0.0 - Partly cloudy 10 - - - -
27/01:00pm 22.6 SSW 14 20 1018.3 - 0.0 - Partly cloudy 10 - - - -
27/12:30pm 22.9 SSW 15 19 1018.3 - 0.0 - Partly cloudy 10 - - - -
27/12:00pm 23.2 SW 16 19 1018.3 R 0.0 - Mostly clear 10 - - - -
27/11:30am 22.5 SW 15 19 1018.2 - 0.0 - Partly cloudy 10 - - - -
27/11:00am 22.3 SW 14 18 1017.8 - 0.0 - Partly cloudy 10 - - - -
27/10:30am 22.3 SW 14 18 1017.3 - 0.0 - Partly cloudy 10 - - - -
27/10:00am 22.0 SW 15 18 1017.0 - 0.0 - - 10 - - - -
27/09:30am 21.3 SW 15 20 1016.8 - 0.0 - Partly cloudy 10 - - - -
27/09:00am 21.1 SW 12 15 1016.3 R 0.0 - Partly cloudy 10 - - - -
27/08:30am 20.4 SW 12 15 1016.0 - 0.0 - Partly cloudy 10 - - - -
27/08:00am 19.9 SW 13 16 1015.4 - 0.0 - Partly cloudy 10 - - - -
27/07:30am 19.9 SW 11 14 1015.1 - 0.0 - Partly cloudy 10 - - - -
27/07:00am 20.1 SW 9 12 1014.8 - 0.0 - Partly cloudy 10 - - - -
27/06:30am 20.3 SW 13 17 1014.7 - 0.0 - Partly cloudy 10 - - - -
27/06:00am 20.7 SW 13 17 1014.0 R 0.0 - Mostly cloudy 10 - - - -
27/05:30am 20.6 SW 13 17 1013.8 - 0.0 - - 10 - - - -
27/05:00am 20.8 SW 14 19 1013.4 - 0.0 - - 10 - - - -
27/04:30am 20.7 SW 11 15 1013.3 - 0.0 - Partly cloudy 10 - - - -
27/04:00am 20.8 SW 13 16 1012.8 - 0.0 - Partly cloudy 10 - - - -
27/03:30am 20.8 SW 12 15 1012.5 - 0.0 - Partly cloudy 10 - - - -
27/03:00am 21.0 SW 14 18 1012.5 R 0.0 - Partly cloudy 10 - - - -
27/02:30am 20.9 SW 12 14 1011.6 - 0.0 - - 10 - - - -
27/02:00am 21.0 WSW 11 15 1012.3 - 0.0 - - 10 - - - -
27/01:30am 21.1 SW 11 15 1011.6 - 0.0 - - 10 - - - -
27/01:00am 21.4 SW 13 17 1011.3 - 0.0 - Partly cloudy 10 - - - -
27/12:37am 21.4 SW 13 17 1011.2 - 0.0 - Partly cloudy 10 - - - -
27/12:30am 21.4 SW 14 17 1011.1 - 0.0 - Partly cloudy 10 - - - -
27/12:00am 21.6 SW 18 26 1010.8 R 0.0 - Cloudy 10 - - - -
 
Date/Time
CDT
Temp
°C
Wind Pressure Rain since
9am
mm
Weather Cloud Vis
km
Sea
Height
m
Swell
Dir  Spd
kts
Gust
kts
hPa Trend Height
m
Period
s
Dir
26/11:30pm 21.9 SW 16 22 1010.3 - 0.0 - Cloudy 10 - - - -
26/11:00pm 22.2 WSW 18 24 1009.3 - 0.0 - Partly cloudy 10 - - - -
26/10:50pm 22.6 WSW 17 23 1009.0 - 0.0 - Partly cloudy 10 - - - -
26/10:30pm 22.9 WSW 15 20 1008.6 - 0.0 - - 10 - - - -
26/10:00pm 23.8 WSW 15 22 1007.8 - 0.0 - - 10 - - - -
26/09:31pm 24.7 WSW 15 25 1007.2 - 0.0 - - 10 - - - -
26/09:30pm 24.7 WSW 16 25 1007.1 - 0.0 - - 10 - - - -
26/09:22pm 25.2 WSW 15 25 1006.8 - 0.0 - - 10 - - - -
26/09:00pm 26.7 WSW 15 21 1006.2 R 0.0 - Partly cloudy 10 - - - -
26/08:30pm 29.6 WSW 11 14 1005.2 - 0.0 - - 10 - - - -
26/08:00pm 32.0 WSW 9 13 1004.3 - 0.0 - - 10 - - - -
26/07:30pm 35.2 SE 5 6 1002.8 - 0.0 - - 10 - - - -
26/07:00pm 37.6 S 4 6 1002.6 - 0.0 - - 10 - - - -
26/06:30pm 37.6 SSW 7 9 1002.4 - 0.0 - - 10 - - - -
26/06:00pm 38.6 SW 10 13 1002.3 F 0.0 - - 10 - - - -
26/05:55pm 38.6 SW 8 13 1002.2 - 0.0 - - 10 - - - -

Other Formats:

Comma delimited format used in spreadsheet applications
http://www.bom.gov.au/fwo/IDS60701/IDS60701.94653.axf

JavaScript Object Notation format (JSON) in row-major order
http://www.bom.gov.au/fwo/IDS60701/IDS60701.94653.json